Flight Track Log - Related Links

Times and Time Zones

All times are in EDT time to prevent confusion due to time zone crossing. See the CTL17 flight status page for this flight to view local times or setup timezone preferences in your user account.

Time Position Orientation Groundspeed Altitude Reporting Facility
EDT Latitude Longitude Course Direction KTS km/h feet Rate Location/Type
Thu 17h50:16 42.2094 -83.5436 223° Southwest 129 238 1.500  Level Cleveland Center
Thu 17h51:23 42.1733 -83.5700 208° Southwest 142 262 2.200 516 Climbing Cleveland Center
Thu 17h52:24 42.1369 -83.6017 213° Southwest 154 285 2.600 393 Climbing Cleveland Center
Thu 17h53:25 42.0933 -83.5942 173° South 153 283 3.000 195 Climbing Cleveland Center
Thu 17h54:27 42.0458 -83.5864 173° South 162 299 3.000  Level Cleveland Center
Thu 17h55:34 42.0003 -83.5731 168° South 167 309 3.000  Level Cleveland Center
Thu 17h56:35 41.9831 -83.5108 110° East 172 319 3.000  Level Cleveland Center
Thu 17h57:36 41.9658 -83.4483 110° East 168 311 3.000  Level Cleveland Center
Thu 17h58:37 41.9506 -83.3919 110° East 172 319 3.000  Level Cleveland Center
Thu 17h59:39 41.9333 -83.3297 110° East 171 317 3.000 146 Level Cleveland Center
Thu 18h00:40 41.9161 -83.2675 110° East 172 319 3.300 422 Climbing Cleveland Center
Thu 18h01:47 41.8967 -83.2025 112° Southeast 167 309 3.900 492 Climbing Cleveland Center
Thu 18h02:42 41.8853 -83.1492 106° East 168 311 4.300 466 Climbing Cleveland Center
Thu 18h03:43 41.8722 -83.0872 106° East 170 315 4.800 344 Climbing Cleveland Center
Thu 18h04:44 41.8547 -83.0253 111° Southeast 173 320 5.000 159 Climbing Cleveland Center
Thu 18h05:36 41.8392 -82.9717 111° Southeast 181 335 5.100 59 Climbing Cleveland Center
Thu 18h06:25 41.8236 -82.9156 110° East 187 346 5.100  Level Cleveland Center
Thu 18h07:26 41.8061 -82.8564 112° Southeast 180 333 5.100  Level Cleveland Center
Thu 18h08:21 41.7925 -82.7972 107° East 182 336 5.100  Level Cleveland Center
Thu 18h09:22 41.7731 -82.7325 112° Southeast 181 335 5.100  Level Cleveland Center
Thu 18h10:22 41.7597 -82.6681 105° East 181 335 5.100  Level Cleveland Center
Thu 18h11:23 41.7461 -82.6064 106° East 181 335 5.100 -246 Level Cleveland Center
Thu 18h12:24 41.7286 -82.5364 108° East 189 349 4.600 -496 Descending Cleveland Center
Thu 18h13:24 41.7089 -82.4633 110° East 196 364 4.100 -496 Descending Cleveland Center
Thu 18h14:25 41.6892 -82.3961 111° Southeast 194 359 3.600 -492 Descending Cleveland Center
Thu 18h15:26 41.6736 -82.3317 108° East 194 359 3.100 -246 Descending Cleveland Center
Thu 18h16:27 41.6558 -82.2644 109° East 178 330 3.100 -98 Level Cleveland Center
Thu 18h17:28 41.6419 -82.2058 108° East 172 319 2.900 -248 Descending Cleveland Center
Thu 18h18:28 41.6367 -82.1389 96° East 186 344 2.600 -397 Descending Cleveland Center
Thu 18h19:29 41.6272 -82.0667 100° East 179 332 2.100 -246 Descending Cleveland Center
Thu 18h20:30 41.6197 -82.0053 99° East 170 315 2.100  Level Cleveland Center
Thu 18h21:31 41.6100 -81.9439 102° East 164 304 2.100 -197 Level Cleveland Center
Thu 18h22:32 41.5878 -81.8881 118° Southeast 175 323 1.700 -246 Descending Cleveland Center
Thu 18h23:33 41.5592 -81.8347 126° Southeast 173 320 1.600 -50 Descending Cleveland Center
Thu 18h24:33 41.5367 -81.7842 121° Southeast 157 291 1.600  Level Cleveland Center
Thu 18h25:34 41.5142 -81.7394 124° Southeast 149 275 1.600  Level Cleveland Center
Thu 18h27:00 41.5175 -81.6833 90° East  Level Estimated
Thu 18h34:00 41.5175 -81.6833 90° East  Level Estimated

Login

Don't have an account? Register now (free) for customized features, flight alerts, and more!